createdAt,value
2019-01-09T00:01:35.603Z,93.60
2019-01-09T00:04:16.501Z,93.60
2019-01-09T00:06:57.903Z,93.60
2019-01-09T00:09:39.320Z,93.50
2019-01-09T00:12:20.607Z,93.40
2019-01-09T00:15:00.236Z,93.40
2019-01-09T00:17:48.991Z,93.40
2019-01-09T00:20:29.761Z,93.40
2019-01-09T00:23:10.329Z,93.30
2019-01-09T00:25:49.803Z,93.30
2019-01-09T00:31:44.091Z,93.30
2019-01-09T00:34:25.168Z,93.20
2019-01-09T00:37:06.405Z,93.20
2019-01-09T00:39:47.995Z,93.20
2019-01-09T00:42:28.957Z,93.20
2019-01-09T00:45:10.387Z,93.20
2019-01-09T00:47:51.840Z,93.20
2019-01-09T00:50:33.519Z,93.20
2019-01-09T00:53:15.002Z,93.20
2019-01-09T00:55:56.204Z,93.20
2019-01-09T00:58:36.871Z,93.20
2019-01-09T01:01:18.384Z,93.30
2019-01-09T01:03:59.505Z,93.20
2019-01-09T01:06:40.172Z,93.20
2019-01-09T01:09:39.842Z,93.20
2019-01-09T01:12:47.526Z,93.10
2019-01-09T01:15:28.852Z,93.10
2019-01-09T01:18:09.968Z,93.10
2019-01-09T01:20:51.295Z,93.00
2019-01-09T01:23:32.654Z,93.00
2019-01-09T01:26:13.579Z,92.90
2019-01-09T01:28:54.929Z,92.90
2019-01-09T01:31:36.041Z,92.90
2019-01-09T01:34:17.641Z,92.90
2019-01-09T01:36:58.914Z,92.90
2019-01-09T01:39:40.455Z,93.30
2019-01-09T01:42:21.288Z,93.00
2019-01-09T01:45:02.225Z,93.00
2019-01-09T01:47:43.859Z,92.90
2019-01-09T01:53:28.900Z,92.90
2019-01-09T01:56:09.932Z,93.00
2019-01-09T01:58:51.257Z,92.90
2019-01-09T02:01:32.651Z,92.90
2019-01-09T02:04:13.949Z,93.00
2019-01-09T02:06:55.307Z,93.00
2019-01-09T02:09:36.323Z,93.00
2019-01-09T02:12:17.710Z,93.00
2019-01-09T02:14:58.309Z,93.00
2019-01-09T02:17:39.169Z,93.00
2019-01-09T02:20:19.823Z,93.00
2019-01-09T02:23:01.267Z,93.00
2019-01-09T02:25:42.722Z,93.00
2019-01-09T02:28:24.076Z,93.00
2019-01-09T02:31:05.437Z,93.00
2019-01-09T02:33:46.885Z,93.00
2019-01-09T02:36:28.223Z,92.90
2019-01-09T02:39:09.089Z,92.90
2019-01-09T02:41:50.064Z,92.80
2019-01-09T02:44:32.396Z,92.90
2019-01-09T02:47:13.453Z,92.90
2019-01-09T02:49:54.098Z,92.90
2019-01-09T02:52:33.901Z,92.80
2019-01-09T02:55:22.447Z,92.90
2019-01-09T02:58:03.885Z,92.90
2019-01-09T03:00:43.539Z,92.90
2019-01-09T03:03:25.161Z,93.00
2019-01-09T03:06:04.653Z,92.90
2019-01-09T03:08:46.108Z,93.00
2019-01-09T03:11:27.016Z,92.90
2019-01-09T03:14:08.241Z,92.90
2019-01-09T03:16:49.601Z,93.00
2019-01-09T03:19:30.252Z,93.00
2019-01-09T03:22:11.367Z,93.00
2019-01-09T03:24:51.374Z,93.00
2019-01-09T03:27:39.891Z,93.00
2019-01-09T03:30:20.857Z,93.20
2019-01-09T03:33:01.685Z,93.10
2019-01-09T03:35:42.811Z,93.20
2019-01-09T03:38:24.306Z,93.00
2019-01-09T03:41:05.354Z,93.10
2019-01-09T03:43:44.997Z,93.10
2019-01-09T03:46:25.638Z,93.20
2019-01-09T03:49:07.168Z,93.20
2019-01-09T03:51:48.429Z,93.30
2019-01-09T03:54:29.504Z,93.30
2019-01-09T03:57:10.417Z,93.30
2019-01-09T03:59:51.820Z,93.30
2019-01-09T04:02:33.264Z,93.30
2019-01-09T04:05:14.865Z,93.20
2019-01-09T04:07:54.717Z,93.20
2019-01-09T04:10:43.275Z,93.10
2019-01-09T04:13:24.500Z,93.00
2019-01-09T04:16:05.848Z,92.90
2019-01-09T04:18:46.568Z,92.90
2019-01-09T04:21:26.107Z,92.90
2019-01-09T04:24:06.732Z,92.90
2019-01-09T04:26:47.852Z,92.80
2019-01-09T04:29:29.390Z,92.80
2019-01-09T04:32:10.776Z,92.80
2019-01-09T04:34:51.494Z,92.70
2019-01-09T04:37:31.175Z,92.80
2019-01-09T04:40:10.733Z,92.70
2019-01-09T04:45:59.573Z,92.60
2019-01-09T04:48:40.648Z,92.70
2019-01-09T04:51:21.664Z,92.70
2019-01-09T04:54:03.048Z,92.70
2019-01-09T04:56:43.731Z,92.70
2019-01-09T04:59:24.420Z,92.70
2019-01-09T05:02:05.447Z,92.70
2019-01-09T05:04:49.284Z,92.70
2019-01-09T05:07:29.688Z,92.70
2019-01-09T05:10:11.034Z,92.60
2019-01-09T05:12:52.318Z,92.60
2019-01-09T05:15:33.793Z,92.50
2019-01-09T05:18:14.859Z,92.60
2019-01-09T05:20:56.171Z,92.60
2019-01-09T05:23:37.145Z,92.50
2019-01-09T05:26:18.317Z,92.60
2019-01-09T05:28:58.983Z,92.50
2019-01-09T05:31:39.059Z,92.60
2019-01-09T05:34:20.159Z,92.60
2019-01-09T05:36:59.691Z,92.60
2019-01-09T05:39:40.854Z,92.60
2019-01-09T05:42:22.673Z,92.50
2019-01-09T05:45:03.701Z,92.50
2019-01-09T05:47:43.252Z,92.50
2019-01-09T05:50:24.085Z,92.50
2019-01-09T05:53:05.595Z,92.50
2019-01-09T05:55:45.204Z,92.50
2019-01-09T06:01:33.786Z,92.40
2019-01-09T06:04:13.431Z,92.40
2019-01-09T06:06:54.751Z,92.40
2019-01-09T06:09:35.489Z,92.30
2019-01-09T06:12:15.021Z,92.10
2019-01-09T06:18:04.900Z,92.30
2019-01-09T06:20:45.589Z,92.00
2019-01-09T06:23:26.643Z,92.00
2019-01-09T06:26:07.924Z,92.00
2019-01-09T06:28:48.831Z,92.10
2019-01-09T06:31:28.397Z,92.20
2019-01-09T06:34:09.533Z,92.20
2019-01-09T06:36:50.700Z,92.10
2019-01-09T06:39:31.605Z,92.20
2019-01-09T06:42:12.928Z,92.30
2019-01-09T06:44:54.379Z,92.30
2019-01-09T06:47:35.685Z,92.40
2019-01-09T06:50:17.104Z,92.50
2019-01-09T06:56:05.344Z,92.70
2019-01-09T06:58:46.947Z,92.70
2019-01-09T07:01:28.236Z,92.70
2019-01-09T07:04:09.535Z,92.70
2019-01-09T07:06:49.063Z,92.70
2019-01-09T07:12:37.989Z,92.80
2019-01-09T07:15:19.549Z,92.90
2019-01-09T07:18:00.771Z,93.00
2019-01-09T07:20:41.952Z,93.00
2019-01-09T07:23:22.705Z,93.40
2019-01-09T07:26:02.351Z,93.10
2019-01-09T07:28:43.469Z,93.10
2019-01-09T07:31:24.516Z,92.90
2019-01-09T07:34:06.136Z,92.80
2019-01-09T07:36:47.539Z,92.70
2019-01-09T07:39:28.427Z,92.60
2019-01-09T07:42:09.151Z,92.60
2019-01-09T07:44:50.104Z,92.60
2019-01-09T07:47:31.347Z,92.70
2019-01-09T07:50:10.929Z,92.70
2019-01-09T07:52:52.247Z,92.90
2019-01-09T07:55:33.404Z,92.90
2019-01-09T07:58:14.721Z,93.10
2019-01-09T08:00:55.472Z,93.20
2019-01-09T08:03:36.984Z,93.40
2019-01-09T08:06:18.572Z,93.60
2019-01-09T08:08:59.807Z,93.60
2019-01-09T08:11:40.901Z,93.50
2019-01-09T08:14:20.820Z,93.40
2019-01-09T08:17:01.472Z,93.40
2019-01-09T08:19:42.457Z,93.30
2019-01-09T08:22:23.227Z,93.20
2019-01-09T08:25:04.674Z,93.20
2019-01-09T08:27:45.608Z,93.10
2019-01-09T08:30:26.877Z,93.20
2019-01-09T08:33:07.801Z,93.20
2019-01-09T08:35:47.415Z,93.10
2019-01-09T08:38:26.999Z,93.20
2019-01-09T08:44:17.628Z,93.10
2019-01-09T08:46:59.152Z,93.20
2019-01-09T08:49:40.499Z,93.20
2019-01-09T08:52:24.981Z,93.20
2019-01-09T08:55:06.397Z,93.20
2019-01-09T08:57:46.044Z,93.30
2019-01-09T09:00:27.237Z,93.30
2019-01-09T09:03:08.017Z,93.50
2019-01-09T09:05:49.085Z,93.60
2019-01-09T09:08:29.839Z,93.30
2019-01-09T09:11:11.300Z,93.10
2019-01-09T09:13:52.925Z,92.90
2019-01-09T09:16:36.670Z,92.80
2019-01-09T09:19:17.917Z,92.70
2019-01-09T09:21:58.025Z,92.70
2019-01-09T09:24:46.554Z,92.70
2019-01-09T09:27:27.629Z,92.60
2019-01-09T09:30:08.409Z,92.70
2019-01-09T09:32:49.514Z,92.70
2019-01-09T09:35:30.848Z,92.70
2019-01-09T09:38:20.210Z,92.80
2019-01-09T09:40:55.413Z,92.80
2019-01-09T09:43:35.035Z,92.80
2019-01-09T09:46:23.688Z,92.70
2019-01-09T09:49:04.933Z,92.70
2019-01-09T09:51:45.829Z,92.80
2019-01-09T09:54:25.446Z,92.90
2019-01-09T09:57:14.017Z,92.90
2019-01-09T09:59:54.946Z,92.90
2019-01-09T10:02:36.467Z,93.00
2019-01-09T10:05:17.821Z,93.20
2019-01-09T10:07:59.264Z,93.20
2019-01-09T10:10:40.721Z,93.20
2019-01-09T10:13:21.577Z,93.10
2019-01-09T10:16:02.270Z,93.10
2019-01-09T10:18:42.892Z,93.00
2019-01-09T10:21:24.472Z,93.00
2019-01-09T10:24:05.169Z,93.00
2019-01-09T10:26:46.668Z,93.00
2019-01-09T10:29:27.957Z,92.90
2019-01-09T10:32:09.124Z,92.90
2019-01-09T10:34:49.810Z,93.00
2019-01-09T10:37:31.364Z,93.00
2019-01-09T10:40:12.335Z,93.00
2019-01-09T10:42:53.771Z,93.10
2019-01-09T10:45:34.760Z,93.10
2019-01-09T10:48:17.106Z,93.10
2019-01-09T10:50:58.169Z,93.20
2019-01-09T10:56:44.774Z,93.30
2019-01-09T10:59:26.810Z,93.40
2019-01-09T11:02:07.532Z,93.40
2019-01-09T11:04:48.891Z,93.60
2019-01-09T11:07:29.121Z,93.80
2019-01-09T11:13:23.813Z,93.90
2019-01-09T11:16:04.836Z,93.80
2019-01-09T11:18:46.344Z,93.80
2019-01-09T11:21:27.128Z,93.70
2019-01-09T11:24:08.613Z,93.70
2019-01-09T11:26:50.100Z,93.70
2019-01-09T11:29:31.627Z,93.60
2019-01-09T11:32:12.355Z,93.70
2019-01-09T11:34:53.808Z,93.70
2019-01-09T11:37:35.226Z,93.70
2019-01-09T11:40:16.812Z,93.80
2019-01-09T11:42:57.520Z,93.80
2019-01-09T11:45:38.119Z,93.80
2019-01-09T11:48:17.639Z,93.80
2019-01-09T11:50:58.996Z,93.90
2019-01-09T11:53:40.281Z,94.00
2019-01-09T11:56:21.528Z,94.00
2019-01-09T11:59:02.816Z,94.00
2019-01-09T12:01:44.729Z,94.00
2019-01-09T12:04:25.908Z,94.10
2019-01-09T12:07:05.519Z,94.20
2019-01-09T12:09:46.252Z,94.30
2019-01-09T12:12:27.476Z,94.20
2019-01-09T12:15:09.084Z,94.10
2019-01-09T12:17:50.604Z,94.00
2019-01-09T12:20:31.283Z,94.00
2019-01-09T12:23:12.815Z,94.00
2019-01-09T12:25:54.235Z,94.00
2019-01-09T12:28:35.396Z,93.90
2019-01-09T12:31:16.106Z,93.90
2019-01-09T12:33:57.581Z,93.90
2019-01-09T12:36:38.711Z,93.90
2019-01-09T12:39:19.520Z,93.90
2019-01-09T12:42:01.031Z,93.90
2019-01-09T12:44:41.052Z,94.00
2019-01-09T12:50:35.309Z,94.00
2019-01-09T12:53:14.891Z,94.00
2019-01-09T12:55:54.573Z,94.10
2019-01-09T12:58:43.077Z,94.10
2019-01-09T13:01:23.921Z,94.10
2019-01-09T13:04:04.961Z,94.20
2019-01-09T13:06:45.732Z,94.40
2019-01-09T13:09:27.038Z,94.60
2019-01-09T13:12:08.671Z,94.50
2019-01-09T13:17:27.802Z,94.40
2019-01-09T13:20:09.080Z,94.30
2019-01-09T13:22:49.925Z,94.10
2019-01-09T13:25:31.402Z,94.10
2019-01-09T13:28:12.121Z,94.10
2019-01-09T13:30:53.413Z,94.10
2019-01-09T13:33:35.337Z,94.30
2019-01-09T13:36:16.431Z,94.50
2019-01-09T13:38:57.112Z,94.60
2019-01-09T13:41:38.761Z,94.50
2019-01-09T13:44:18.368Z,94.50
2019-01-09T13:46:59.845Z,94.50
2019-01-09T13:49:41.319Z,94.50
2019-01-09T13:52:22.931Z,94.40
2019-01-09T13:55:04.441Z,94.40
2019-01-09T13:57:45.072Z,94.40
2019-01-09T14:00:25.807Z,94.40
2019-01-09T14:03:07.532Z,94.40
2019-01-09T15:02:27.897Z,94.60
2019-01-09T15:05:08.652Z,94.20
2019-01-09T15:07:48.580Z,94.40
2019-01-09T15:10:37.176Z,94.40
2019-01-09T15:13:18.104Z,94.30
2019-01-09T15:15:58.776Z,94.30
2019-01-09T15:18:40.374Z,94.20
2019-01-09T15:21:21.864Z,94.10
2019-01-09T15:24:08.415Z,94.10
2019-01-09T15:26:46.312Z,94.20
2019-01-09T15:29:27.387Z,94.20
2019-01-09T15:32:08.555Z,94.10
2019-01-09T15:34:49.800Z,94.00
2019-01-09T15:37:31.229Z,94.00
2019-01-09T15:40:12.431Z,93.80
2019-01-09T15:42:53.396Z,93.60
2019-01-09T15:45:34.601Z,93.40
2019-01-09T15:48:15.891Z,93.50
2019-01-09T15:50:56.775Z,93.60
2019-01-09T15:53:37.407Z,93.60
2019-01-09T15:56:18.905Z,93.50
2019-01-09T15:59:00.400Z,93.60
2019-01-09T16:01:41.360Z,93.60
2019-01-09T16:04:20.956Z,93.70
2019-01-09T16:10:00.823Z,93.70
2019-01-09T16:25:59.865Z,93.70
2019-01-09T16:28:41.049Z,93.80
2019-01-09T16:37:19.295Z,94.10
2019-01-09T16:42:40.127Z,94.00
2019-01-09T16:45:21.061Z,94.10
2019-01-09T16:48:02.159Z,94.10
2019-01-09T16:50:42.815Z,94.10
2019-01-09T16:53:23.751Z,94.10
2019-01-09T16:56:05.211Z,94.10
2019-01-09T16:58:46.675Z,94.10
2019-01-09T17:01:27.991Z,94.10
2019-01-09T17:07:07.573Z,94.10
2019-01-09T17:09:48.300Z,94.20
2019-01-09T17:12:29.469Z,94.10
2019-01-09T17:15:10.771Z,94.10
2019-01-09T17:17:51.857Z,94.10
2019-01-09T17:20:33.271Z,94.20
2019-01-09T17:23:14.143Z,94.20
2019-01-09T17:25:54.230Z,94.20
2019-01-09T17:28:34.980Z,94.20
2019-01-09T17:31:16.128Z,94.20
2019-01-09T17:33:57.080Z,94.20
2019-01-09T17:36:38.532Z,94.20
2019-01-09T17:39:19.617Z,94.30
2019-01-09T17:42:00.750Z,94.30
2019-01-09T17:44:42.178Z,94.30
2019-01-09T17:47:23.516Z,94.20
2019-01-09T17:50:04.311Z,94.20
2019-01-09T17:52:45.916Z,94.20
2019-01-09T17:55:27.360Z,94.30
2019-01-09T17:58:08.839Z,94.20
2019-01-09T18:00:48.428Z,94.20
2019-01-09T18:03:37.020Z,94.30
2019-01-09T18:06:16.568Z,94.30
2019-01-09T18:12:13.695Z,94.30
2019-01-09T18:14:55.185Z,94.30
2019-01-09T18:17:36.601Z,94.30
2019-01-09T18:20:18.081Z,94.30
2019-01-09T18:22:58.959Z,94.30
2019-01-09T18:25:40.234Z,94.30
2019-01-09T18:28:21.364Z,94.30
2019-01-09T18:31:03.646Z,94.30
2019-01-09T18:33:45.061Z,94.30
2019-01-09T18:36:26.497Z,94.40
2019-01-09T18:39:07.373Z,94.30
2019-01-09T18:42:09.650Z,94.40
2019-01-09T18:44:50.466Z,94.40
2019-01-09T18:47:32.160Z,94.40
2019-01-09T18:50:13.115Z,94.40
2019-01-09T18:52:54.464Z,94.40
2019-01-09T18:58:18.180Z,94.40
2019-01-09T19:01:07.881Z,94.40
2019-01-09T19:03:49.592Z,94.40
2019-01-09T19:06:35.471Z,94.50
2019-01-09T19:09:13.128Z,94.50
2019-01-09T19:11:54.424Z,94.50
2019-01-09T19:14:35.598Z,94.50
2019-01-09T19:17:16.989Z,94.50
2019-01-09T19:19:58.459Z,94.50
2019-01-09T19:22:39.978Z,94.50
2019-01-09T19:25:21.429Z,94.50
2019-01-09T19:28:02.615Z,94.50
2019-01-09T19:30:44.010Z,94.60
2019-01-09T19:33:25.513Z,94.60
2019-01-09T19:36:07.156Z,94.70
2019-01-09T19:38:48.447Z,94.60
2019-01-09T19:41:29.927Z,94.60
2019-01-09T19:44:11.288Z,94.60
2019-01-09T19:46:52.625Z,94.60
2019-01-09T19:49:33.679Z,94.70
2019-01-09T19:52:14.376Z,94.60
2019-01-09T19:54:55.059Z,94.60
2019-01-09T19:57:36.021Z,94.70
2019-01-09T20:00:16.988Z,94.70
2019-01-09T20:02:58.397Z,94.60
2019-01-09T20:05:39.363Z,94.70
2019-01-09T20:08:20.581Z,94.60
2019-01-09T20:11:01.562Z,94.60
2019-01-09T20:13:42.664Z,94.70
2019-01-09T20:16:23.802Z,94.60
2019-01-09T20:19:05.360Z,94.60
2019-01-09T20:21:46.389Z,94.60
2019-01-09T20:24:28.083Z,94.60
2019-01-09T20:27:08.764Z,94.60
2019-01-09T20:29:50.111Z,94.60
2019-01-09T20:32:31.743Z,94.60
2019-01-09T20:35:12.917Z,94.60
